Terminal Aerodrome Forecast
Issued by NWS

Home | Current Version | Previous Version | Text Only | Print | Product List | Glossary On
Versions: 1 2 3 4 5 6 7 8 9 10 11 12 13 14 15 16 17 18 19 20 21
000
FTUS46 KLOX 191144
TAFLGB
TAF
KLGB 191144Z 1912/2012 13010KT 3SM RA BR VCTS BKN015CB OVC025
     FM191630 23012KT P6SM -SHRA BKN025 BKN050
     FM192000 26017G23KT P6SM VCSH SCT025 BKN050
     FM200400 27010KT P6SM SCT025 BKN050
     FM201000 10006KT P6SM VCSH SCT020 OVC030=

USA.gov is the U.S. government's official web portal to all federal, state and local government web resources and services.